EDT,Max TemperatureF,Mean TemperatureF,Min TemperatureF,Max Dew PointF,MeanDew PointF,Min DewpointF,Max Humidity, Mean Humidity, Min Humidity, Max Sea Level PressureIn, Mean Sea Level PressureIn, Min Sea Level PressureIn, Max VisibilityMiles, Mean VisibilityMiles, Min VisibilityMiles, Max Wind SpeedMPH, Mean Wind SpeedMPH, Max Gust SpeedMPH,PrecipitationIn, CloudCover, Events, WindDirDegrees
2013-7-1,90,82,73,77,74,72,100,86,72,30.06,29.98,29.91,10,8,0,30,8,39,0.92,4,Fog-Rain-Thunderstorm,186
2013-7-2,88,81,74,78,75,73,100,88,75,30.12,30.07,30.00,10,10,8,18,6,24,T,2,Rain-Thunderstorm,144
2013-7-3,88,81,73,77,75,72,100,84,68,30.16,30.11,30.08,10,10,10,22,10,29,T,0,,133
2013-7-4,88,81,73,76,74,71,100,84,68,30.18,30.14,30.11,10,10,2,23,11,32,0.19,2,Thunderstorm,116
2013-7-5,88,81,73,76,74,72,100,82,63,30.17,30.13,30.09,10,10,5,22,10,29,0.08,3,Thunderstorm,112
2013-7-6,88,82,76,75,74,73,94,79,63,30.14,30.11,30.08,10,10,10,18,9,25,0.00,2,,116
2013-7-7,88,81,73,76,75,73,100,84,68,30.15,30.11,30.07,10,10,2,18,7,22,0.09,3,Rain,84
2013-7-8,88,81,73,76,74,73,100,82,63,30.17,30.14,30.10,10,10,10,15,7,21,0.00,2,,79
2013-7-9,86,80,73,76,73,71,100,81,61,30.20,30.14,30.09,10,9,1,22,5,26,0.13,2,Rain,60
2013-7-10,86,79,72,74,73,70,100,85,69,30.10,30.06,30.01,10,10,10,18,7,22,0.00,1,,138
2013-7-11,88,80,72,79,73,70,100,83,65,30.06,30.00,29.96,10,10,4,23,6,26,0.19,1,Rain-Thunderstorm,165
2013-7-12,89,80,70,76,73,70,100,82,63,29.98,29.95,29.90,10,10,6,17,5,21,0.29,2,Rain-Thunderstorm,150
2013-7-13,86,79,71,76,73,68,100,87,74,30.03,29.99,29.94,10,10,4,20,5,25,0.21,3,Rain-Thunderstorm,157
2013-7-14,86,79,72,75,73,70,100,70,40,30.13,30.07,30.01,10,10,5,14,4,26,0.20,4,Rain-Thunderstorm,165
2013-7-15,85,78,71,,,,,,,30.13,30.09,30.05,10,10,2,13,6,,0.00,2,,66
2013-7-16,86,79,72,76,73,71,100,94,84,30.18,30.14,30.10,10,9,2,15,8,25,0.31,3,Rain-Thunderstorm,98
2013-7-17,84,78,72,76,74,72,100,85,69,30.16,30.13,30.09,10,9,1,23,6,28,0.46,4,Rain,87
2013-7-18,85,78,71,76,73,72,100,83,65,30.15,30.10,30.07,10,10,8,16,6,20,0.05,3,Rain,152
2013-7-19,87,79,71,79,75,71,100,88,75,30.14,30.11,30.06,10,10,10,20,7,25,0.00,1,,133
2013-7-20,88,81,73,79,75,70,100,86,72,30.12,30.09,30.05,10,10,6,21,4,24,0.05,3,Rain-Thunderstorm,147
2013-7-21,90,81,72,78,73,71,100,80,59,30.15,30.12,30.06,10,10,2,21,7,26,0.30,4,Rain-Thunderstorm,189
2013-7-22,91,82,72,77,73,70,100,80,59,30.15,30.11,30.08,10,10,10,16,6,20,0.00,2,,193
2013-7-23,93,84,74,76,74,71,100,75,49,30.11,30.05,29.98,10,10,10,15,5,20,0.00,2,,257
2013-7-24,91,82,73,76,74,72,100,78,56,30.01,29.96,29.92,10,9,2,29,8,41,0.19,2,Rain-Thunderstorm,232
2013-7-25,87,80,73,77,74,72,94,82,70,30.01,29.97,29.91,10,8,0,24,8,31,0.67,3,Fog-Rain-Thunderstorm,250
2013-7-26,87,81,74,77,75,73,100,85,70,30.02,29.99,29.97,10,9,2,12,7,16,0.19,5,Rain,267
2013-7-27,87,80,72,77,75,72,100,84,68,30.00,29.98,29.93,10,9,0,15,5,20,0.00,1,Fog,193
2013-7-28,88,80,72,77,73,68,100,83,65,30.08,30.03,29.96,10,8,0,29,5,36,0.98,2,Fog-Rain-Thunderstorm,193
2013-7-29,88,80,71,78,75,71,100,86,72,30.16,30.11,30.04,10,10,9,13,4,18,T,1,Thunderstorm,103
2013-7-30,87,80,72,79,77,73,100,87,74,30.19,30.15,30.12,10,10,7,13,5,15,0.00,2,Thunderstorm,84
2013-7-31,88,81,74,79,76,73,100,82,63,30.14,30.09,30.04,10,9,6,18,6,22,0.00,2,,117